BYU weather

Bayreuth Airport
Bayreuth, Bavaria, Germany

Public forecast

Using degrees Celsius for public forecast. Weather courtesy of forecast.io.

Closest aviation weather report (METAR) to Bayreuth Airport

Report is more than 2 hours old.

Closest report is Hof-Plauen Airport, 20.0 nm (37.1 km) NNE. Retrieved 2020/01/26 17:50 UTC (2 hours ago):

EDQM 261750Z 18005KT 0300 R26/1000D FG VV/// 01/01 Q1016

Closest aviation forecast (TAF) to Bayreuth Airport

Forecast is more than 12 hours old.

Closest forecast is Grafenwohr Army Air Field, 20.8 nm (38.4 km) SE. Retrieved 2020/01/23 18:33 UTC (3 days ago):

TAF ETIC 231800Z 2318/2424 VRB06KT 8000 BR SCT010 QNH3035INS BECMG 2321/2322 VRB06KT 5000 BR BKN010 QNH3033INS TEMPO 2402/2407 3200 BR OVC008 BECMG 2410/2411 VRB06KT 9999 NSW SCT010 QNH3027INS TX00/2413Z TNM02/2406Z LAST NO AMDS AFT 2322 NEXT 2702